Time;durP1;ratioP1;P1;durP2;ratioP2;P2;SDS_P1;SDS_P2;PMS_P1;PMS_P2;Temp;Humidity;BMP_temperature;BMP_pressure;BME280_temperature;BME280_humidity;BME280_pressure;Samples;Min_cycle;Max_cycle;Signal;HPM_P1;HPM_P2
2022/12/23 00:01:01;;;;;;;123.47;75.13;;;10.90;99.90;;;;;;5036186;28;20018;-64
2022/12/23 00:03:27;;;;;;;102.72;70.00;;;11.00;99.90;;;;;;5035915;28;20621;-66
2022/12/23 00:05:53;;;;;;;90.97;61.47;;;11.00;99.90;;;;;;5035883;28;20472;-63
2022/12/23 00:08:20;;;;;;;93.07;63.30;;;11.00;99.90;;;;;;5035528;28;20021;-63
2022/12/23 00:10:48;;;;;;;83.50;59.00;;;11.00;99.90;;;;;;5035932;28;20068;-62
2022/12/23 00:16:10;;;;;;;80.55;56.85;;;10.80;99.90;;;;;;5036013;28;20113;-63
2022/12/23 00:18:36;;;;;;;74.43;52.05;;;10.80;99.90;;;;;;5034610;28;20045;-63
2022/12/23 00:21:11;;;;;;;75.70;53.40;;;10.70;99.90;;;;;;5035671;28;20044;-62
2022/12/23 00:23:39;;;;;;;79.57;55.97;;;10.70;99.90;;;;;;5035669;28;20100;-64
2022/12/23 00:26:06;;;;;;;68.43;50.10;;;10.70;99.90;;;;;;5035762;28;20364;-65
2022/12/23 00:28:32;;;;;;;63.38;44.40;;;10.60;99.90;;;;;;5035684;28;20029;-61
2022/12/23 00:31:01;;;;;;;59.63;43.67;;;10.50;99.90;;;;;;5035467;28;20061;-64
2022/12/23 00:33:33;;;;;;;59.97;43.55;;;10.60;99.90;;;;;;5035417;28;20071;-63
2022/12/23 00:35:58;;;;;;;50.78;37.78;;;10.50;99.90;;;;;;5035146;28;20024;-62
2022/12/23 00:43:55;;;;;;;137.00;95.60;;;10.40;99.90;;;;;;5035185;28;20506;-63
2022/12/23 00:46:21;;;;;;;116.32;84.07;;;10.30;99.90;;;;;;5035213;28;20022;-64
2022/12/23 08:42:11;;;;;;;193.60;123.65;;;8.70;99.90;;;;;;5062477;28;20400;-66
2022/12/23 08:44:36;;;;;;;168.65;113.80;;;9.30;99.90;;;;;;5051973;28;20021;-64
2022/12/23 08:47:02;;;;;;;166.55;116.90;;;9.80;99.90;;;;;;5054198;28;20075;-64
2022/12/23 08:49:28;;;;;;;172.20;113.45;;;9.90;99.90;;;;;;5051456;28;20078;-67
2022/12/23 08:51:54;;;;;;;179.60;118.53;;;9.90;99.90;;;;;;5047398;28;20381;-61
2022/12/23 08:54:21;;;;;;;139.25;101.00;;;10.30;99.90;;;;;;5055371;28;20255;-65
2022/12/23 08:56:46;;;;;;;120.20;89.15;;;10.50;99.90;;;;;;5050052;28;20393;-63
2022/12/23 08:59:16;;;;;;;115.43;82.88;;;10.60;99.90;;;;;;5050458;28;20100;-72
2022/12/23 09:01:42;;;;;;;105.25;76.35;;;10.40;99.90;;;;;;5048877;28;20118;-66
2022/12/23 09:04:08;;;;;;;103.05;72.80;;;10.20;99.90;;;;;;5043892;28;20390;-69
2022/12/23 09:06:37;;;;;;;99.10;72.65;;;10.20;99.90;;;;;;5048243;28;20049;-63
2022/12/23 09:09:04;;;;;;;132.82;96.72;;;10.80;99.90;;;;;;5048535;28;20104;-73
2022/12/23 09:11:30;;;;;;;131.82;101.63;;;11.00;99.90;;;;;;5055157;28;20037;-65
2022/12/23 09:13:58;;;;;;;134.13;101.93;;;11.00;99.90;;;;;;5046423;28;20054;-66
2022/12/23 09:16:25;;;;;;;116.32;88.72;;;11.00;99.90;;;;;;5050496;28;20387;-65
2022/12/23 09:18:51;;;;;;;100.45;81.97;;;11.30;99.90;;;;;;5050181;28;20024;-68
2022/12/23 09:21:20;;;;;;;92.28;74.10;;;11.80;99.90;;;;;;5046983;28;20029;-61
2022/12/23 09:23:46;;;;;;;87.60;71.00;;;12.30;99.90;;;;;;5045440;28;20059;-64
2022/12/23 09:26:21;;;;;;;88.47;72.85;;;12.70;99.90;;;;;;5045283;28;20021;-70
2022/12/23 09:28:47;;;;;;;105.72;81.75;;;13.10;99.90;;;;;;5050907;28;20513;-65
2022/12/23 09:31:14;;;;;;;87.18;70.95;;;13.50;99.90;;;;;;5046847;28;20044;-63
2022/12/23 09:33:39;;;;;;;82.03;66.88;;;13.70;99.90;;;;;;5042792;28;20116;-64
2022/12/23 09:36:06;;;;;;;75.30;63.95;;;13.90;99.90;;;;;;5049202;28;20147;-70
2022/12/23 09:38:34;;;;;;;73.85;61.15;;;14.20;99.90;;;;;;5047946;28;20048;-67
2022/12/23 09:41:43;;;;;;;64.40;57.33;;;14.40;99.90;;;;;;5037974;28;20045;-66
2022/12/23 09:44:36;;;;;;;73.38;60.90;;;14.60;99.90;;;;;;5033804;28;20025;-63
2022/12/23 09:47:10;;;;;;;65.65;56.38;;;15.00;99.90;;;;;;5031607;28;20327;-67
2022/12/23 09:49:41;;;;;;;63.55;55.05;;;15.20;99.90;;;;;;5041023;28;20148;-67
2022/12/23 09:52:11;;;;;;;81.07;62.45;;;15.50;99.90;;;;;;5032631;28;20666;-65
2022/12/23 09:54:44;;;;;;;69.30;58.70;;;15.70;99.90;;;;;;5030253;28;20025;-68
2022/12/23 09:57:17;;;;;;;;;;;15.80;99.90;;;;;;5031309;28;20104;-72
2022/12/23 10:00:06;;;;;;;78.25;63.15;;;16.10;99.90;;;;;;5030473;28;19915;-63
2022/12/23 10:02:58;;;;;;;68.82;58.65;;;16.20;99.90;;;;;;5031060;28;20017;-68
2022/12/23 10:06:00;;;;;;;75.07;61.30;;;16.50;99.90;;;;;;5008355;28;20033;-73
2022/12/23 10:08:30;;;;;;;75.88;62.10;;;16.70;99.90;;;;;;5006932;28;20029;-68
2022/12/23 10:11:19;;;;;;;78.50;66.65;;;17.00;99.90;;;;;;5012842;28;20216;-69
2022/12/23 10:13:55;;;;;;;91.82;76.18;;;17.10;92.50;;;;;;5028178;28;20498;-66
2022/12/23 10:16:33;;;;;;;85.18;75.95;;;17.40;88.10;;;;;;5030726;28;20030;-68
2022/12/23 10:19:07;;;;;;;83.80;73.28;;;17.60;80.50;;;;;;5031791;28;20088;-67
2022/12/23 10:21:43;;;;;;;76.25;66.90;;;17.70;74.50;;;;;;5030414;28;20018;-68
2022/12/23 10:24:39;;;;;;;70.60;62.80;;;17.80;75.50;;;;;;5032207;28;20499;-66
2022/12/23 10:27:19;;;;;;;62.10;55.20;;;18.00;72.00;;;;;;5023104;28;20037;-63
2022/12/23 10:29:45;;;;;;;62.10;55.38;;;18.00;75.20;;;;;;5029355;28;20018;-62
2022/12/23 10:32:31;;;;;;;60.17;53.63;;;18.10;78.20;;;;;;5034208;28;20522;-62
2022/12/23 10:35:15;;;;;;;60.45;54.15;;;18.20;94.80;;;;;;5034335;28;20029;-68
2022/12/23 10:37:47;;;;;;;;;;;18.20;84.20;;;;;;5034369;28;20037;-61
2022/12/23 10:40:42;;;;;;;63.83;56.83;;;17.90;78.50;;;;;;5031468;28;20322;-62
2022/12/23 10:43:33;;;;;;;59.60;53.40;;;17.80;79.10;;;;;;5027537;28;20030;-66
2022/12/23 10:46:42;;;;;;;56.08;50.00;;;17.60;82.10;;;;;;5027051;28;20029;-67
2022/12/23 10:49:25;;;;;;;61.38;54.85;;;17.50;89.60;;;;;;5017855;28;20499;-64
2022/12/23 10:51:59;;;;;;;63.40;56.40;;;17.40;93.30;;;;;;5019549;28;20033;-61
2022/12/23 10:54:35;;;;;;;73.70;64.50;;;17.30;94.00;;;;;;5028245;28;20485;-64
2022/12/23 10:57:04;;;;;;;70.47;62.80;;;17.20;93.50;;;;;;5026936;28;20033;-60
2022/12/23 10:59:34;;;;;;;78.10;66.95;;;17.20;94.80;;;;;;5031796;28;20030;-71
2022/12/23 11:02:08;;;;;;;70.53;61.47;;;17.10;96.50;;;;;;5024416;28;20040;-63
2022/12/23 11:04:35;;;;;;;;;;;17.30;99.90;;;;;;5018618;28;20116;-70
2022/12/23 11:07:02;;;;;;;66.68;59.50;;;17.20;97.90;;;;;;5030676;28;19996;-62
2022/12/23 11:09:39;;;;;;;77.13;65.20;;;17.20;95.10;;;;;;5030342;28;20438;-69
2022/12/23 11:12:07;;;;;;;73.55;63.08;;;17.10;99.90;;;;;;5033723;28;20048;-67
2022/12/23 11:14:58;;;;;;;74.63;63.83;;;17.10;99.90;;;;;;5031560;28;20036;-65
2022/12/23 11:17:35;;;;;;;64.78;57.63;;;16.90;99.90;;;;;;5030968;28;20060;-67
2022/12/23 11:20:12;;;;;;;60.95;54.35;;;16.80;99.90;;;;;;5023161;28;20072;-65
2022/12/23 11:23:00;;;;;;;56.30;50.28;;;17.00;99.90;;;;;;5019926;28;20036;-62
2022/12/23 11:25:36;;;;;;;59.05;51.58;;;17.30;98.00;;;;;;5027583;28;20032;-65
2022/12/23 11:28:18;;;;;;;64.75;57.65;;;17.50;96.40;;;;;;5021480;28;20042;-65
2022/12/23 11:31:09;;;;;;;62.63;55.83;;;17.70;96.10;;;;;;5029977;28;20124;-67
2022/12/23 11:33:39;;;;;;;61.47;54.75;;;17.80;96.10;;;;;;5013414;28;20034;-66
2022/12/23 11:36:05;;;;;;;55.72;49.55;;;17.90;92.20;;;;;;5023183;28;20021;-67
2022/12/23 11:38:32;;;;;;;58.15;51.72;;;18.10;88.60;;;;;;5030382;28;20112;-66
2022/12/23 11:40:58;;;;;;;65.18;55.13;;;18.30;95.60;;;;;;5029759;28;20055;-62
2022/12/23 11:43:26;;;;;;;60.63;53.47;;;18.50;91.50;;;;;;5029951;28;20025;-67
2022/12/23 11:46:30;;;;;;;56.25;50.25;;;18.60;83.00;;;;;;5031035;28;20029;-63
2022/12/23 11:49:24;;;;;;;55.85;49.83;;;18.80;79.00;;;;;;5030650;28;20200;-69
2022/12/23 11:52:13;;;;;;;58.97;52.70;;;19.00;74.40;;;;;;5032548;28;20157;-61
2022/12/23 11:54:39;;;;;;;55.85;49.88;;;19.40;71.00;;;;;;5033061;28;20033;-65
2022/12/23 11:57:17;;;;;;;54.13;48.25;;;19.40;69.20;;;;;;5033003;28;20632;-70
2022/12/23 11:59:48;;;;;;;53.80;47.40;;;19.50;67.00;;;;;;5033426;28;20115;-70
2022/12/23 12:02:28;;;;;;;53.50;46.47;;;19.50;68.00;;;;;;5032540;28;20033;-69
2022/12/23 12:05:00;;;;;;;47.10;42.30;;;19.50;66.10;;;;;;5032427;28;20025;-64
2022/12/23 12:07:27;;;;;;;45.90;41.30;;;19.30;69.10;;;;;;5033821;28;20486;-68
2022/12/23 12:09:57;;;;;;;56.83;48.67;;;19.40;68.70;;;;;;5032456;28;20688;-65
2022/12/23 12:12:23;;;;;;;51.70;46.17;;;19.40;67.10;;;;;;5033152;28;20065;-69
2022/12/23 12:14:53;;;;;;;58.58;51.92;;;19.40;69.30;;;;;;5030750;28;20606;-63
2022/12/23 12:17:47;;;;;;;51.05;45.45;;;19.40;74.20;;;;;;5029992;28;20071;-66
2022/12/23 12:20:32;;;;;;;;;;;19.50;69.40;;;;;;5031967;28;20022;-61
2022/12/23 12:23:11;;;;;;;43.95;39.03;;;19.50;70.00;;;;;;5043304;23;19970;-62
2022/12/23 12:25:49;;;;;;;42.15;37.85;;;19.60;65.90;;;;;;5047689;28;20441;-65
2022/12/23 12:28:23;;;;;;;40.67;36.58;;;19.70;66.40;;;;;;5048218;28;20382;-64
2022/12/23 12:31:18;;;;;;;38.70;34.85;;;19.90;64.50;;;;;;5049897;28;20040;-64
2022/12/23 12:33:52;;;;;;;42.38;37.88;;;20.20;63.80;;;;;;5041714;28;20051;-68
2022/12/23 12:36:40;;;;;;;43.13;38.72;;;20.50;62.40;;;;;;5047664;28;20040;-67
2022/12/23 12:39:20;;;;;;;40.53;36.38;;;20.70;60.50;;;;;;5047612;28;20432;-68
2022/12/23 12:42:18;;;;;;;38.92;34.65;;;20.80;59.50;;;;;;5042188;28;20031;-64
2022/12/23 12:44:46;;;;;;;34.15;30.55;;;21.00;58.20;;;;;;5033207;28;20036;-68
2022/12/23 12:47:27;;;;;;;52.60;44.90;;;21.00;56.70;;;;;;5050170;28;20137;-67
2022/12/23 12:49:59;;;;;;;64.53;56.58;;;21.00;57.80;;;;;;5050865;28;20033;-63
2022/12/23 12:52:26;;;;;;;62.65;53.58;;;20.10;59.90;;;;;;5052843;28;20390;-64
2022/12/23 12:55:06;;;;;;;58.92;52.50;;;19.00;63.80;;;;;;5051819;28;20029;-65
2022/12/23 12:57:36;;;;;;;73.93;64.97;;;18.20;81.50;;;;;;5051674;28;20013;-64
2022/12/23 13:00:04;;;;;;;76.75;65.65;;;17.60;96.50;;;;;;5048067;28;20021;-65
2022/12/23 13:02:45;;;;;;;79.88;66.15;;;16.90;99.90;;;;;;5043533;28;20035;-63
2022/12/23 13:05:59;;;;;;;71.28;57.13;;;16.50;99.90;;;;;;5051864;28;20497;-67
2022/12/23 13:08:40;;;;;;;91.93;71.80;;;16.40;99.90;;;;;;5024593;28;20041;-61
2022/12/23 13:11:12;;;;;;;153.00;119.38;;;16.10;99.90;;;;;;5048235;28;20053;-64
2022/12/23 13:13:46;;;;;;;134.45;110.82;;;15.90;99.90;;;;;;5047225;28;20033;-66
2022/12/23 13:16:48;;;;;;;108.85;93.15;;;16.10;99.90;;;;;;5048038;28;20640;-68
2022/12/23 13:19:38;;;;;;;110.38;92.13;;;15.80;99.90;;;;;;5047858;28;20029;-65
2022/12/23 13:22:10;;;;;;;107.53;88.82;;;15.60;99.90;;;;;;5047844;28;20398;-63
2022/12/23 13:24:56;;;;;;;113.88;90.65;;;15.60;99.90;;;;;;5047205;28;20474;-63
2022/12/23 13:27:32;;;;;;;113.22;95.13;;;15.60;99.90;;;;;;5051931;28;20029;-62
2022/12/23 13:30:07;;;;;;;115.13;88.13;;;15.70;99.90;;;;;;5053172;28;20032;-64
2022/12/23 13:33:08;;;;;;;106.03;88.70;;;15.70;99.90;;;;;;5052500;28;20127;-61
2022/12/23 13:36:07;;;;;;;135.02;102.85;;;15.70;99.90;;;;;;5053204;28;20051;-67
2022/12/23 13:38:55;;;;;;;117.55;93.05;;;15.40;99.90;;;;;;5022288;28;20037;-62
2022/12/23 13:41:29;;;;;;;151.18;119.05;;;15.30;99.90;;;;;;5053102;28;20032;-62
2022/12/23 13:44:00;;;;;;;141.30;120.72;;;15.30;99.90;;;;;;5054656;28;20021;-65
2022/12/23 13:46:44;;;;;;;101.75;84.63;;;15.20;99.90;;;;;;5055195;28;20051;-64
2022/12/23 13:49:47;;;;;;;113.07;92.22;;;15.20;99.90;;;;;;5054830;28;20380;-66
2022/12/23 13:52:34;;;;;;;104.70;92.35;;;15.10;99.90;;;;;;5056010;28;20029;-67
2022/12/23 13:55:14;;;;;;;88.68;74.57;;;15.00;99.90;;;;;;5056117;28;20386;-62
2022/12/23 13:57:55;;;;;;;95.80;83.45;;;14.90;99.90;;;;;;5056255;28;20017;-65
2022/12/23 14:00:31;;;;;;;95.93;85.53;;;14.70;99.90;;;;;;5055743;28;20100;-61
2022/12/23 14:02:56;;;;;;;104.05;87.88;;;14.60;99.90;;;;;;5056151;28;20378;-62
2022/12/23 14:05:49;;;;;;;87.88;74.78;;;14.60;99.90;;;;;;5055766;28;20073;-63
2022/12/23 14:08:18;;;;;;;67.32;59.83;;;14.50;99.90;;;;;;5055912;28;20043;-65
2022/12/23 14:11:00;;;;;;;104.15;80.72;;;14.40;99.90;;;;;;5055612;28;20025;-65
2022/12/23 14:13:40;;;;;;;65.47;53.15;;;14.40;99.90;;;;;;5055699;28;20040;-63
2022/12/23 14:16:15;;;;;;;73.38;60.60;;;14.40;99.90;;;;;;5055344;28;20070;-65
2022/12/23 14:19:07;;;;;;;90.18;76.15;;;14.30;99.90;;;;;;5054299;28;20032;-67
2022/12/23 14:21:37;;;;;;;74.25;63.58;;;14.10;99.90;;;;;;5055634;28;20482;-63
2022/12/23 14:24:21;;;;;;;62.55;55.67;;;13.90;99.90;;;;;;5054851;28;20041;-61
2022/12/23 14:27:40;;;;;;;46.92;40.95;;;13.90;99.90;;;;;;5055686;28;20029;-64
2022/12/23 14:30:12;;;;;;;48.45;42.42;;;13.60;99.90;;;;;;4994022;28;20104;-64
2022/12/23 14:33:02;;;;;;;36.95;32.55;;;13.40;99.90;;;;;;5052846;28;20055;-62
2022/12/23 14:35:31;;;;;;;41.85;37.20;;;13.20;99.90;;;;;;5055520;28;20044;-62
2022/12/23 14:38:09;;;;;;;50.58;42.70;;;13.10;99.90;;;;;;5054968;28;20017;-62
2022/12/23 14:40:37;;;;;;;58.97;49.63;;;13.00;99.90;;;;;;5055184;28;20020;-64
2022/12/23 14:43:22;;;;;;;74.35;60.67;;;12.90;99.90;;;;;;5054835;28;20044;-65
2022/12/23 14:45:53;;;;;;;71.15;57.72;;;13.10;99.90;;;;;;5055057;28;20024;-64
2022/12/23 14:48:40;;;;;;;103.25;74.63;;;13.10;99.90;;;;;;5054997;28;20017;-66
2022/12/23 14:51:09;;;;;;;132.45;96.63;;;13.20;99.90;;;;;;5054843;28;20024;-64
2022/12/23 14:53:36;;;;;;;108.63;79.47;;;13.20;99.90;;;;;;5054895;28;20430;-62
2022/12/23 14:56:15;;;;;;;92.55;69.10;;;13.20;99.90;;;;;;5055204;28;20025;-62
2022/12/23 14:58:52;;;;;;;68.80;54.92;;;13.30;99.90;;;;;;5054745;28;20085;-65
2022/12/23 15:01:23;;;;;;;70.78;57.03;;;13.20;99.90;;;;;;5054931;28;20055;-65
2022/12/23 15:03:50;;;;;;;58.05;47.08;;;13.20;99.90;;;;;;5054739;28;20108;-64
2022/12/23 15:06:36;;;;;;;62.65;48.42;;;13.30;99.90;;;;;;5054646;28;20017;-65
2022/12/23 15:09:06;;;;;;;80.65;63.55;;;13.40;99.90;;;;;;5054606;28;20087;-64
2022/12/23 15:11:34;;;;;;;85.95;70.07;;;13.30;99.90;;;;;;5054245;28;20131;-64
2022/12/23 15:14:06;;;;;;;84.18;67.35;;;13.20;99.90;;;;;;5054579;28;20036;-60
2022/12/23 15:16:38;;;;;;;82.28;68.13;;;13.20;99.90;;;;;;5054490;28;20082;-62
2022/12/23 15:19:18;;;;;;;101.80;84.85;;;13.20;99.90;;;;;;5054555;28;20025;-63
2022/12/23 15:21:44;;;;;;;97.32;75.07;;;12.90;99.90;;;;;;5054453;28;20025;-62
2022/12/23 15:24:19;;;;;;;117.43;89.82;;;12.70;99.90;;;;;;5054046;28;20040;-66
2022/12/23 15:26:50;;;;;;;80.53;67.20;;;12.60;99.90;;;;;;5054347;28;20028;-64
2022/12/23 15:29:17;;;;;;;69.25;57.78;;;12.70;99.90;;;;;;5054250;28;20017;-65
2022/12/23 15:31:47;;;;;;;69.38;57.53;;;12.70;99.90;;;;;;5054168;28;20033;-64
2022/12/23 15:34:22;;;;;;;65.13;55.55;;;12.60;99.90;;;;;;5054423;28;20037;-61
2022/12/23 15:36:53;;;;;;;72.80;60.38;;;12.50;99.90;;;;;;5054257;28;20021;-65
2022/12/23 15:39:31;;;;;;;63.42;51.35;;;12.40;99.90;;;;;;5054074;28;20494;-65
2022/12/23 15:41:57;;;;;;;75.70;57.20;;;12.40;99.90;;;;;;5053706;28;20495;-59
2022/12/23 15:44:32;;;;;;;77.40;59.38;;;12.40;99.90;;;;;;5054023;28;20017;-60
2022/12/23 15:46:57;;;;;;;72.07;57.15;;;12.50;99.90;;;;;;5053911;28;20533;-65
2022/12/23 15:49:23;;;;;;;97.18;71.22;;;12.30;99.90;;;;;;5053804;28;20025;-64
2022/12/23 15:51:54;;;;;;;114.40;84.72;;;12.00;99.90;;;;;;5053607;28;20562;-67
2022/12/23 15:54:28;;;;;;;98.07;74.63;;;11.90;99.90;;;;;;5054067;28;20029;-61
2022/12/23 15:56:56;;;;;;;85.78;65.60;;;11.80;99.90;;;;;;5053539;28;20025;-62
2022/12/23 15:59:40;;;;;;;101.20;79.47;;;11.80;99.90;;;;;;5053667;28;20028;-67
2022/12/23 16:02:15;;;;;;;102.80;77.25;;;11.70;99.90;;;;;;5053635;28;20111;-60
2022/12/23 16:04:40;;;;;;;100.93;77.10;;;11.70;99.90;;;;;;5053727;28;20498;-62
2022/12/23 16:07:35;;;;;;;157.23;115.47;;;11.70;99.90;;;;;;5052273;28;20064;-63
2022/12/23 16:10:12;;;;;;;118.05;89.20;;;11.80;99.90;;;;;;5053420;28;20032;-62
2022/12/23 16:12:38;;;;;;;134.77;99.70;;;11.70;99.90;;;;;;5053337;28;20029;-63
2022/12/23 16:15:30;;;;;;;314.60;210.35;;;11.60;99.90;;;;;;5053442;28;20032;-61
2022/12/23 16:18:12;;;;;;;206.27;148.93;;;11.60;99.90;;;;;;5053589;28;20029;-66
2022/12/23 16:20:44;;;;;;;205.30;143.98;;;11.60;99.90;;;;;;5053364;28;20035;-61
2022/12/23 16:23:11;;;;;;;304.50;206.05;;;11.70;99.90;;;;;;5052892;28;20049;-61
2022/12/23 16:25:38;;;;;;;249.55;181.98;;;11.70;99.90;;;;;;5052989;28;20028;-61
2022/12/23 16:28:20;;;;;;;241.32;186.00;;;11.80;99.90;;;;;;5053333;28;20091;-67
2022/12/23 16:30:48;;;;;;;212.43;167.80;;;11.70;99.90;;;;;;5053428;28;20120;-65
2022/12/23 16:33:36;;;;;;;188.00;151.43;;;11.50;99.90;;;;;;5053502;28;20029;-61
2022/12/23 16:36:25;;;;;;;252.23;198.20;;;11.50;99.90;;;;;;5053293;28;20036;-62
2022/12/23 16:39:10;;;;;;;209.70;161.35;;;11.30;99.90;;;;;;5052878;28;20111;-63
2022/12/23 16:41:36;;;;;;;204.82;151.35;;;11.30;99.90;;;;;;5053146;28;20029;-61
2022/12/23 16:44:02;;;;;;;181.70;137.32;;;11.30;99.90;;;;;;5053039;28;20355;-65
2022/12/23 16:46:35;;;;;;;191.73;136.43;;;11.30;99.90;;;;;;5053216;28;20029;-61
2022/12/23 16:49:03;;;;;;;163.00;119.32;;;11.30;99.90;;;;;;5053420;28;20104;-67
2022/12/23 16:51:32;;;;;;;185.55;136.00;;;11.40;99.90;;;;;;5052911;28;20021;-67
2022/12/23 16:53:59;;;;;;;141.15;108.97;;;11.40;99.90;;;;;;5052842;28;20029;-63
2022/12/23 16:56:36;;;;;;;131.93;106.32;;;11.40;99.90;;;;;;5053281;28;20018;-63
2022/12/23 16:59:03;;;;;;;115.63;91.38;;;11.30;99.90;;;;;;5053276;28;20466;-65
2022/12/23 17:01:35;;;;;;;102.40;83.13;;;11.20;99.90;;;;;;5053016;28;20047;-62
2022/12/23 17:04:01;;;;;;;91.75;73.38;;;11.20;99.90;;;;;;5057138;28;20032;-65
2022/12/23 17:06:26;;;;;;;86.50;69.32;;;11.30;99.90;;;;;;5057293;28;20021;-63
2022/12/23 17:08:53;;;;;;;82.30;63.53;;;11.20;99.90;;;;;;5056977;28;20434;-65
2022/12/23 17:11:36;;;;;;;83.28;64.28;;;11.10;99.90;;;;;;5056795;28;20025;-64
2022/12/23 17:14:03;;;;;;;79.05;61.83;;;11.10;99.90;;;;;;5057108;28;20029;-66
2022/12/23 17:16:29;;;;;;;73.55;55.88;;;11.20;99.90;;;;;;5056733;28;20061;-66
2022/12/23 17:18:54;;;;;;;65.20;52.70;;;11.30;99.90;;;;;;5056612;28;20028;-62
2022/12/23 17:21:24;;;;;;;65.75;50.03;;;11.30;99.90;;;;;;5056678;28;20067;-62
2022/12/23 17:23:53;;;;;;;75.55;58.15;;;11.40;99.90;;;;;;5056479;28;20088;-66
2022/12/23 17:26:19;;;;;;;77.05;58.45;;;11.40;99.90;;;;;;5056535;28;20029;-63
2022/12/23 17:28:44;;;;;;;78.38;59.35;;;11.30;99.90;;;;;;5056480;28;20025;-66
2022/12/23 17:31:11;;;;;;;84.38;64.53;;;11.20;99.90;;;;;;5056479;28;20025;-65
2022/12/23 17:33:38;;;;;;;73.80;57.15;;;11.10;99.90;;;;;;5056322;28;20029;-65
2022/12/23 17:36:04;;;;;;;77.25;57.95;;;11.10;99.90;;;;;;5056119;28;20510;-64
2022/12/23 17:38:30;;;;;;;68.00;52.85;;;11.00;99.90;;;;;;5056316;28;20024;-65
2022/12/23 17:40:59;;;;;;;71.32;53.60;;;11.00;99.90;;;;;;5056209;28;20029;-63
2022/12/23 17:43:25;;;;;;;64.30;49.85;;;11.00;99.90;;;;;;5056311;28;20027;-67
2022/12/23 17:45:51;;;;;;;88.10;61.05;;;11.10;99.90;;;;;;5056144;28;20021;-66
2022/12/23 17:48:16;;;;;;;96.47;65.93;;;11.10;99.90;;;;;;5056054;28;20021;-63
2022/12/23 17:50:43;;;;;;;109.97;84.47;;;11.10;99.90;;;;;;5055845;28;20056;-62
2022/12/23 17:53:19;;;;;;;102.78;79.65;;;11.00;99.90;;;;;;5056069;28;20099;-60
2022/12/23 17:55:45;;;;;;;97.97;73.80;;;10.90;99.90;;;;;;5055983;28;20025;-62
2022/12/23 17:58:12;;;;;;;111.43;84.45;;;10.70;99.90;;;;;;5055994;28;20070;-65
2022/12/23 18:00:38;;;;;;;107.28;81.28;;;10.60;99.90;;;;;;5056195;28;20111;-65
2022/12/23 18:03:16;;;;;;;99.13;76.95;;;10.50;99.90;;;;;;5055814;28;20443;-62
2022/12/23 18:05:41;;;;;;;95.00;75.03;;;10.50;99.90;;;;;;5055785;28;20055;-62
2022/12/23 18:08:07;;;;;;;111.20;85.90;;;10.50;99.90;;;;;;5055777;28;20447;-60
2022/12/23 18:10:37;;;;;;;85.72;69.57;;;10.50;99.90;;;;;;5055538;28;20029;-61
2022/12/23 18:13:13;;;;;;;71.38;56.83;;;10.40;99.90;;;;;;5055232;28;20056;-59
2022/12/23 18:15:41;;;;;;;62.20;48.28;;;10.50;99.90;;;;;;5055558;28;20031;-66
2022/12/23 18:18:19;;;;;;;56.85;45.85;;;10.50;99.90;;;;;;5055685;28;20386;-62
2022/12/23 18:20:47;;;;;;;57.17;42.13;;;10.60;99.90;;;;;;5055431;28;20029;-66
2022/12/23 18:23:17;;;;;;;46.58;37.75;;;10.60;99.90;;;;;;5055211;28;20052;-65
2022/12/23 18:25:43;;;;;;;53.45;42.08;;;10.70;99.90;;;;;;5055368;28;20087;-67
2022/12/23 18:28:09;;;;;;;53.58;41.15;;;10.70;99.90;;;;;;5054169;28;20033;-64
2022/12/23 18:30:35;;;;;;;56.83;41.70;;;10.60;99.90;;;;;;5055286;28;20060;-66
2022/12/23 18:33:01;;;;;;;49.92;39.00;;;10.70;99.90;;;;;;5055509;28;20119;-67
2022/12/23 18:35:34;;;;;;;54.88;40.38;;;10.60;99.90;;;;;;5055342;28;20038;-63
2022/12/23 18:38:00;;;;;;;45.05;35.97;;;10.60;99.90;;;;;;5055298;28;20116;-65
2022/12/23 18:40:28;;;;;;;49.95;38.00;;;10.70;99.90;;;;;;5055533;28;20025;-66
2022/12/23 18:42:54;;;;;;;57.17;41.08;;;10.70;99.90;;;;;;5055069;28;20103;-60
2022/12/23 18:45:35;;;;;;;49.28;38.47;;;10.60;99.90;;;;;;5055677;28;20045;-65
2022/12/23 18:48:03;;;;;;;45.92;35.90;;;10.50;99.90;;;;;;5055069;28;20017;-66
2022/12/23 18:50:32;;;;;;;101.57;76.32;;;10.50;99.90;;;;;;5054621;28;20028;-61
2022/12/23 18:52:58;;;;;;;159.38;118.88;;;10.50;99.90;;;;;;5054982;28;20028;-65
2022/12/23 18:55:24;;;;;;;154.45;110.20;;;10.20;99.90;;;;;;5054861;28;20040;-64
2022/12/23 18:57:50;;;;;;;143.98;103.00;;;10.00;99.90;;;;;;5055042;28;20028;-62
2022/12/23 19:00:22;;;;;;;140.20;99.82;;;10.00;99.90;;;;;;5054741;28;20112;-64
2022/12/23 19:02:52;;;;;;;153.90;111.70;;;10.00;99.90;;;;;;5055059;28;20020;-62
2022/12/23 19:05:24;;;;;;;125.85;92.35;;;9.80;99.90;;;;;;5054532;28;20167;-62
2022/12/23 19:07:51;;;;;;;140.45;101.55;;;9.60;99.90;;;;;;5054653;28;20025;-68
2022/12/23 19:10:20;;;;;;;144.57;99.18;;;9.60;99.90;;;;;;5054461;28;20474;-62
2022/12/23 19:12:46;;;;;;;127.75;89.32;;;9.50;99.90;;;;;;5054877;28;20025;-64
2022/12/23 19:15:12;;;;;;;100.68;76.07;;;9.60;99.90;;;;;;5054837;28;20375;-62
2022/12/23 19:17:38;;;;;;;112.40;78.93;;;9.60;99.90;;;;;;5054297;28;20024;-65
2022/12/23 19:20:10;;;;;;;99.03;69.57;;;9.70;99.90;;;;;;5054571;28;20021;-63
2022/12/23 19:22:36;;;;;;;86.22;61.33;;;9.70;99.90;;;;;;5054073;28;20052;-67
2022/12/23 19:25:02;;;;;;;91.75;65.38;;;9.70;99.90;;;;;;5053469;28;20024;-63
2022/12/23 19:27:28;;;;;;;83.00;59.58;;;9.70;99.90;;;;;;5054461;28;20041;-64
2022/12/23 19:29:55;;;;;;;83.40;58.45;;;9.70;99.90;;;;;;5054201;28;20057;-62
2022/12/23 19:32:21;;;;;;;79.70;56.08;;;9.70;99.90;;;;;;5053990;28;20033;-62
2022/12/23 19:34:47;;;;;;;69.68;50.85;;;9.70;99.90;;;;;;5054394;28;20051;-62
2022/12/23 19:37:13;;;;;;;57.45;44.33;;;9.60;99.90;;;;;;5054097;28;20021;-68
2022/12/23 19:39:40;;;;;;;80.03;58.00;;;9.60;99.90;;;;;;5054024;28;20078;-62
2022/12/23 19:42:06;;;;;;;63.58;47.65;;;9.60;99.90;;;;;;5053964;28;20056;-60
2022/12/23 19:44:31;;;;;;;66.88;47.63;;;9.60;99.90;;;;;;5053989;28;20503;-62
2022/12/23 19:46:57;;;;;;;68.07;47.13;;;9.70;99.90;;;;;;5053765;28;20025;-62
2022/12/23 19:49:23;;;;;;;126.55;84.90;;;9.70;99.90;;;;;;5053750;28;20032;-64
2022/12/23 19:51:52;;;;;;;80.88;57.83;;;9.60;99.90;;;;;;5053899;28;20114;-64
2022/12/23 19:54:22;;;;;;;83.30;59.38;;;9.50;99.90;;;;;;5053689;28;20021;-66
2022/12/23 19:56:50;;;;;;;76.38;54.25;;;9.40;99.90;;;;;;5053691;28;20021;-63
2022/12/23 19:59:15;;;;;;;63.45;46.38;;;9.50;99.90;;;;;;5053797;28;20112;-64
2022/12/23 20:01:41;;;;;;;55.95;42.20;;;9.50;99.90;;;;;;5052673;28;20175;-64
2022/12/23 20:04:09;;;;;;;50.85;38.25;;;9.50;99.90;;;;;;5051580;28;20128;-65
2022/12/23 20:06:37;;;;;;;49.50;38.10;;;9.50;99.90;;;;;;5052863;28;20021;-60
2022/12/23 20:09:05;;;;;;;65.57;47.47;;;9.40;99.90;;;;;;5052431;28;20029;-65
2022/12/23 20:11:42;;;;;;;54.92;39.60;;;9.30;99.90;;;;;;5051899;28;20035;-64
2022/12/23 20:14:09;;;;;;;52.10;36.67;;;9.30;99.90;;;;;;5052547;28;20021;-63
2022/12/23 20:16:36;;;;;;;49.67;36.10;;;9.30;99.90;;;;;;5052815;28;20017;-64
2022/12/23 20:19:02;;;;;;;44.00;33.30;;;9.30;99.90;;;;;;5052770;28;20021;-64
2022/12/23 20:21:28;;;;;;;39.55;31.08;;;9.40;99.90;;;;;;5052610;28;20056;-64
2022/12/23 20:23:54;;;;;;;52.72;37.97;;;9.30;99.90;;;;;;5052257;28;20091;-62
2022/12/23 20:26:22;;;;;;;58.28;40.72;;;9.30;99.90;;;;;;5052818;28;20021;-63
2022/12/23 20:28:48;;;;;;;82.32;56.83;;;9.30;99.90;;;;;;5052775;28;20037;-62
2022/12/23 20:31:26;;;;;;;68.55;47.95;;;9.20;99.90;;;;;;5052613;28;20074;-65
2022/12/23 20:33:52;;;;;;;56.95;41.67;;;9.00;99.90;;;;;;5052969;28;20025;-65
2022/12/23 20:36:22;;;;;;;76.07;48.63;;;9.00;99.90;;;;;;5053077;28;20100;-61
2022/12/23 20:38:50;;;;;;;95.22;61.80;;;9.00;99.90;;;;;;5053090;28;20471;-64
2022/12/23 20:41:18;;;;;;;68.80;50.78;;;8.90;99.90;;;;;;5053469;28;20383;-64
2022/12/23 20:43:44;;;;;;;68.22;45.80;;;8.80;99.90;;;;;;5053513;28;20047;-65
2022/12/23 20:46:12;;;;;;;63.70;46.42;;;8.80;99.90;;;;;;5052830;28;20021;-65
2022/12/23 20:48:37;;;;;;;92.50;59.30;;;8.90;99.90;;;;;;5053199;28;20100;-65
2022/12/23 20:51:09;;;;;;;96.00;63.08;;;8.90;99.90;;;;;;5053076;28;20135;-65
2022/12/23 20:53:35;;;;;;;124.53;83.93;;;8.80;99.90;;;;;;5052940;28;20388;-64
2022/12/23 20:56:06;;;;;;;142.50;98.40;;;8.70;99.90;;;;;;5053021;28;20562;-60
2022/12/23 21:01:16;;;;;;;96.82;67.80;;;8.50;99.90;;;;;;5052827;28;20086;-63